createdAt,value
2022-09-12T00:00:38.292Z,17.05
2022-09-12T00:01:41.938Z,22.33
2022-09-12T00:02:45.541Z,16.75
2022-09-12T00:03:49.147Z,17.41
2022-09-12T00:04:52.760Z,17.75
2022-09-12T00:05:56.193Z,16.42
2022-09-12T00:06:59.837Z,15.55
2022-09-12T00:08:01.841Z,17.39
2022-09-12T00:09:03.668Z,15.80
2022-09-12T00:10:05.565Z,17.84
2022-09-12T00:11:07.458Z,16.15
2022-09-12T00:12:09.303Z,15.97
2022-09-12T00:13:11.101Z,16.19
2022-09-12T00:14:12.894Z,14.72
2022-09-12T00:15:14.690Z,17.93
2022-09-12T00:16:17.357Z,16.27
2022-09-12T00:17:19.245Z,16.28
2022-09-12T00:18:21.059Z,17.51
2022-09-12T00:19:22.859Z,17.67
2022-09-12T00:20:26.378Z,15.62
2022-09-12T00:21:28.374Z,17.63
2022-09-12T00:22:30.211Z,16.50
2022-09-12T00:23:32.034Z,16.34
2022-09-12T00:24:33.830Z,15.27
2022-09-12T00:25:35.625Z,17.95
2022-09-12T00:26:37.767Z,16.50
2022-09-12T00:27:39.600Z,19.84
2022-09-12T00:28:41.479Z,17.15
2022-09-12T00:29:43.342Z,16.92
2022-09-12T00:30:45.243Z,18.30
2022-09-12T00:31:47.200Z,18.71
2022-09-12T00:32:49.078Z,15.02
2022-09-12T00:33:50.891Z,14.68
2022-09-12T00:34:52.681Z,21.10
2022-09-12T00:35:54.487Z,15.12
2022-09-12T00:36:56.401Z,17.50
2022-09-12T00:37:58.231Z,16.65
2022-09-12T00:39:00.042Z,16.40
2022-09-12T00:40:02.170Z,15.71
2022-09-12T00:41:03.952Z,16.21
2022-09-12T00:42:05.847Z,15.64
2022-09-12T00:43:07.674Z,14.81
2022-09-12T00:44:09.462Z,20.49
2022-09-12T00:45:11.271Z,15.71
2022-09-12T00:46:13.778Z,13.69
2022-09-12T00:47:15.581Z,18.67
2022-09-12T00:48:17.435Z,16.83
2022-09-12T00:49:19.236Z,13.69
2022-09-12T00:50:22.034Z,15.89
2022-09-12T00:51:23.828Z,15.70
2022-09-12T00:52:25.632Z,16.64
2022-09-12T00:53:27.476Z,14.74
2022-09-12T00:54:29.262Z,14.95
2022-09-12T00:55:31.049Z,17.79
2022-09-12T00:56:32.950Z,17.77
2022-09-12T00:57:34.833Z,20.89
2022-09-12T00:58:36.656Z,13.62
2022-09-12T00:59:38.444Z,15.35
2022-09-12T01:00:40.850Z,15.93
2022-09-12T01:01:42.738Z,15.11
2022-09-12T01:02:44.534Z,16.26
2022-09-12T01:03:46.364Z,15.92
2022-09-12T01:04:48.154Z,19.01
2022-09-12T01:05:49.949Z,17.49
2022-09-12T01:06:51.838Z,15.07
2022-09-12T01:07:53.636Z,15.15
2022-09-12T01:08:55.471Z,16.14
2022-09-12T01:09:57.249Z,17.80
2022-09-12T01:10:59.247Z,15.67
2022-09-12T01:12:01.049Z,15.81
2022-09-12T01:13:02.882Z,14.79
2022-09-12T01:14:04.703Z,16.65
2022-09-12T01:15:06.500Z,17.99
2022-09-12T01:16:08.799Z,14.29
2022-09-12T01:17:10.611Z,15.82
2022-09-12T01:18:12.309Z,13.11
2022-09-12T01:19:14.046Z,17.49
2022-09-12T01:20:16.151Z,15.06
2022-09-12T01:21:17.935Z,16.00
2022-09-12T01:22:19.752Z,17.17
2022-09-12T01:23:21.636Z,15.73
2022-09-12T01:24:23.485Z,15.09
2022-09-12T01:25:25.268Z,17.43
2022-09-12T01:26:27.671Z,14.00
2022-09-12T01:27:29.369Z,18.28
2022-09-12T01:28:31.147Z,15.33
2022-09-12T01:29:32.976Z,19.01
2022-09-12T01:30:34.875Z,19.64
2022-09-12T01:31:36.694Z,17.96
2022-09-12T01:32:38.493Z,24.85
2022-09-12T01:33:40.187Z,18.89
2022-09-12T01:34:42.011Z,20.32
2022-09-12T01:35:43.811Z,19.91
2022-09-12T01:36:45.713Z,17.06
2022-09-12T01:37:47.513Z,19.01
2022-09-12T01:38:49.303Z,18.97
2022-09-12T01:39:52.695Z,19.31
2022-09-12T01:40:54.571Z,19.95
2022-09-12T01:41:58.072Z,19.15
2022-09-12T01:42:59.885Z,20.69
2022-09-12T01:44:01.714Z,19.48
2022-09-12T01:45:03.440Z,16.69
2022-09-12T01:46:05.392Z,18.59
2022-09-12T01:47:07.218Z,17.04
2022-09-12T01:48:09.013Z,20.63
2022-09-12T01:49:10.813Z,21.76
2022-09-12T01:50:12.949Z,21.44
2022-09-12T01:51:14.751Z,16.37
2022-09-12T01:52:16.554Z,18.24
2022-09-12T01:53:18.347Z,19.46
2022-09-12T01:54:20.138Z,17.93
2022-09-12T01:55:21.967Z,18.27
2022-09-12T01:56:24.587Z,19.31
2022-09-12T01:57:26.389Z,18.83
2022-09-12T01:58:28.189Z,16.79
2022-09-12T01:59:29.985Z,17.51
2022-09-12T02:00:31.914Z,19.18
2022-09-12T02:01:33.746Z,18.48
2022-09-12T02:02:35.511Z,15.79
2022-09-12T02:03:37.299Z,15.06
2022-09-12T02:04:39.092Z,15.92
2022-09-12T02:05:40.927Z,16.05
2022-09-12T02:06:42.728Z,16.81
2022-09-12T02:07:44.526Z,21.77
2022-09-12T02:08:46.424Z,15.70
2022-09-12T02:09:48.407Z,16.41
2022-09-12T02:10:50.342Z,16.15
2022-09-12T02:11:52.130Z,17.20
2022-09-12T02:12:53.930Z,16.35
2022-09-12T02:13:55.721Z,15.69
2022-09-12T02:14:57.594Z,13.79
2022-09-12T02:15:59.430Z,15.54
2022-09-12T02:17:01.228Z,13.74
2022-09-12T02:18:02.927Z,13.07
2022-09-12T02:19:04.724Z,15.78
2022-09-12T02:20:06.627Z,14.71
2022-09-12T02:21:08.465Z,15.90
2022-09-12T02:22:10.250Z,13.84
2022-09-12T02:23:11.948Z,17.24
2022-09-12T02:24:13.745Z,16.62
2022-09-12T02:25:15.553Z,15.08
2022-09-12T02:26:18.301Z,11.56
2022-09-12T02:27:20.100Z,13.11
2022-09-12T02:28:21.893Z,14.00
2022-09-12T02:29:23.684Z,14.50
2022-09-12T02:30:26.102Z,12.23
2022-09-12T02:31:28.056Z,14.05
2022-09-12T02:32:29.870Z,13.80
2022-09-12T02:33:31.659Z,13.07
2022-09-12T02:34:33.448Z,15.69
2022-09-12T02:35:35.240Z,16.47
2022-09-12T02:36:37.187Z,18.21
2022-09-12T02:37:38.989Z,13.20
2022-09-12T02:38:40.778Z,13.29
2022-09-12T02:39:45.326Z,14.63
2022-09-12T02:40:46.277Z,15.43
2022-09-12T02:41:48.126Z,14.23
2022-09-12T02:42:49.931Z,12.97
2022-09-12T02:43:51.712Z,12.77
2022-09-12T02:44:53.515Z,16.33
2022-09-12T02:45:55.699Z,14.95
2022-09-12T02:46:57.698Z,13.05
2022-09-12T02:47:59.506Z,14.49
2022-09-12T02:49:01.300Z,14.80
2022-09-12T02:50:03.194Z,14.33
2022-09-12T02:51:04.983Z,13.67
2022-09-12T02:52:06.810Z,15.79
2022-09-12T02:53:08.613Z,13.00
2022-09-12T02:54:10.417Z,16.05
2022-09-12T02:55:12.219Z,12.48
2022-09-12T02:56:15.014Z,14.98
2022-09-12T02:57:20.650Z,14.21
2022-09-12T02:58:20.342Z,13.44
2022-09-12T02:59:22.141Z,13.10
2022-09-12T03:00:24.043Z,18.02
2022-09-12T03:01:26.260Z,15.75
2022-09-12T03:02:28.081Z,15.63
2022-09-12T03:03:29.860Z,14.92
2022-09-12T03:04:31.646Z,13.75
2022-09-12T03:05:33.346Z,12.43
2022-09-12T03:06:35.253Z,13.51
2022-09-12T03:07:37.084Z,14.18
2022-09-12T03:08:38.903Z,12.87
2022-09-12T03:09:40.702Z,15.71
2022-09-12T03:10:42.709Z,13.75
2022-09-12T03:11:44.504Z,13.48
2022-09-12T03:12:46.354Z,15.93
2022-09-12T03:13:48.147Z,12.50
2022-09-12T03:14:49.949Z,14.82
2022-09-12T03:15:51.751Z,14.07
2022-09-12T03:16:53.781Z,13.99
2022-09-12T03:17:55.627Z,15.80
2022-09-12T03:18:57.429Z,16.23
2022-09-12T03:19:59.239Z,11.91
2022-09-12T03:21:01.142Z,12.35
2022-09-12T03:22:02.938Z,11.59
2022-09-12T03:23:04.775Z,12.38
2022-09-12T03:24:06.581Z,13.49
2022-09-12T03:25:08.392Z,12.55
2022-09-12T03:26:10.810Z,13.65
2022-09-12T03:27:12.620Z,13.55
2022-09-12T03:28:14.465Z,12.36
2022-09-12T03:29:16.261Z,12.16
2022-09-12T03:30:18.498Z,12.45
2022-09-12T03:31:20.474Z,15.05
2022-09-12T03:32:22.410Z,13.91
2022-09-12T03:33:24.256Z,11.35
2022-09-12T03:34:26.057Z,15.06
2022-09-12T03:35:27.853Z,11.99
2022-09-12T03:36:29.744Z,12.99
2022-09-12T03:37:31.555Z,14.97
2022-09-12T03:38:33.395Z,14.58
2022-09-12T03:39:35.204Z,11.75
2022-09-12T03:40:37.300Z,10.66
2022-09-12T03:41:39.108Z,11.65
2022-09-12T03:42:40.921Z,12.21
2022-09-12T03:43:42.751Z,13.41
2022-09-12T03:44:44.556Z,13.49
2022-09-12T03:45:46.376Z,13.10
2022-09-12T03:46:48.258Z,16.51
2022-09-12T03:47:50.257Z,13.10
2022-09-12T03:48:52.120Z,13.56
2022-09-12T03:49:53.926Z,11.57
2022-09-12T03:50:55.935Z,12.43
2022-09-12T03:51:57.736Z,12.74
2022-09-12T03:52:59.744Z,12.83
2022-09-12T03:54:01.591Z,11.89
2022-09-12T03:55:03.388Z,12.05
2022-09-12T03:56:05.294Z,14.45
2022-09-12T03:57:07.094Z,13.24
2022-09-12T03:58:09.225Z,16.30
2022-09-12T03:59:11.049Z,14.68
2022-09-12T04:00:19.601Z,14.48
2022-09-12T04:01:18.351Z,16.86
2022-09-12T04:02:20.230Z,12.69
2022-09-12T04:03:22.027Z,12.99
2022-09-12T04:04:23.854Z,15.84
2022-09-12T04:05:25.673Z,13.86
2022-09-12T04:06:28.071Z,15.25
2022-09-12T04:07:29.862Z,12.45
2022-09-12T04:08:31.669Z,15.81
2022-09-12T04:09:33.515Z,14.97
2022-09-12T04:10:35.930Z,15.81
2022-09-12T04:11:37.735Z,12.36
2022-09-12T04:12:39.554Z,14.43
2022-09-12T04:13:41.334Z,17.11
2022-09-12T04:14:43.181Z,14.59
2022-09-12T04:15:44.995Z,13.01
2022-09-12T04:16:47.031Z,15.98
2022-09-12T04:17:48.809Z,13.73
2022-09-12T04:18:50.634Z,12.93
2022-09-12T04:19:52.482Z,13.81
2022-09-12T04:20:54.389Z,17.75
2022-09-12T04:21:56.191Z,16.40
2022-09-12T04:22:57.992Z,14.03
2022-09-12T04:23:59.802Z,14.06
2022-09-12T04:25:01.648Z,15.64
2022-09-12T04:26:03.555Z,15.23
2022-09-12T04:27:07.824Z,16.21
2022-09-12T04:28:08.969Z,18.38
2022-09-12T04:29:10.786Z,16.88
2022-09-12T04:30:13.240Z,15.05
2022-09-12T04:31:15.044Z,15.29
2022-09-12T04:32:16.854Z,12.91
2022-09-12T04:33:18.660Z,13.79
2022-09-12T04:34:20.485Z,17.75
2022-09-12T04:35:22.318Z,15.29
2022-09-12T04:36:25.650Z,20.40
2022-09-12T04:37:27.466Z,21.65
2022-09-12T04:38:29.274Z,17.65
2022-09-12T04:39:31.093Z,19.87
2022-09-12T04:40:33.238Z,13.66
2022-09-12T04:41:35.049Z,19.64
2022-09-12T04:42:37.583Z,16.25
2022-09-12T04:43:39.395Z,20.43
2022-09-12T04:44:41.197Z,16.07
2022-09-12T04:45:43.054Z,16.80
2022-09-12T04:46:44.947Z,14.90
2022-09-12T04:47:46.756Z,19.51
2022-09-12T04:48:49.799Z,16.67
2022-09-12T04:49:52.184Z,16.04
2022-09-12T04:50:54.109Z,15.54
2022-09-12T04:51:55.919Z,12.54
2022-09-12T04:52:57.729Z,14.29
2022-09-12T04:53:59.566Z,12.84
2022-09-12T04:55:01.357Z,16.10
2022-09-12T04:56:03.194Z,18.35
2022-09-12T04:57:05.005Z,13.25
2022-09-12T04:58:06.811Z,12.31
2022-09-12T04:59:08.621Z,14.56
2022-09-12T05:00:11.440Z,16.41
2022-09-12T05:01:13.619Z,15.21
2022-09-12T05:02:15.445Z,14.14
2022-09-12T05:03:17.304Z,13.81
2022-09-12T05:04:19.104Z,15.40
2022-09-12T05:05:20.930Z,13.47
2022-09-12T05:06:23.285Z,13.68
2022-09-12T05:07:25.091Z,11.88
2022-09-12T05:08:26.898Z,12.26
2022-09-12T05:09:28.692Z,17.27
2022-09-12T05:10:30.604Z,16.57
2022-09-12T05:11:59.772Z,13.37
2022-09-12T05:12:36.059Z,15.75
2022-09-12T05:13:37.888Z,15.95
2022-09-12T05:14:39.704Z,14.86
2022-09-12T05:15:42.196Z,17.16
2022-09-12T05:16:49.057Z,14.81
2022-09-12T05:17:47.957Z,15.43
2022-09-12T05:18:49.765Z,16.97
2022-09-12T05:19:51.558Z,17.56
2022-09-12T05:20:53.407Z,13.89
2022-09-12T05:21:55.153Z,16.00
2022-09-12T05:22:56.970Z,14.13
2022-09-12T05:23:58.764Z,13.53
2022-09-12T05:25:00.567Z,18.07
2022-09-12T05:26:02.464Z,15.21
2022-09-12T05:27:04.326Z,19.50
2022-09-12T05:28:06.114Z,13.40
2022-09-12T05:29:07.956Z,15.43
2022-09-12T05:30:10.242Z,15.15
2022-09-12T05:31:12.047Z,16.78
2022-09-12T05:32:13.871Z,17.08
2022-09-12T05:33:15.665Z,13.28
2022-09-12T05:34:17.473Z,15.49
2022-09-12T05:35:19.365Z,18.18
2022-09-12T05:36:23.062Z,16.38
2022-09-12T05:37:24.910Z,14.20
2022-09-12T05:38:26.705Z,18.38
2022-09-12T05:39:28.499Z,15.55
2022-09-12T05:40:30.510Z,15.39
2022-09-12T05:41:32.298Z,18.54
2022-09-12T05:42:34.141Z,19.87
2022-09-12T05:43:35.947Z,16.91
2022-09-12T05:44:37.670Z,16.35
2022-09-12T05:45:39.525Z,14.90
2022-09-12T05:46:41.408Z,16.77
2022-09-12T05:47:43.240Z,16.73
2022-09-12T05:48:45.051Z,15.65
2022-09-12T05:49:46.760Z,18.87
2022-09-12T05:50:48.667Z,16.94
2022-09-12T05:51:50.539Z,14.64
2022-09-12T05:52:52.368Z,18.27
2022-09-12T05:53:54.166Z,18.45
2022-09-12T05:54:55.979Z,15.08
2022-09-12T05:55:57.777Z,17.28
2022-09-12T05:56:59.767Z,18.81
2022-09-12T05:58:01.613Z,20.89
2022-09-12T05:59:03.421Z,17.30
2022-09-12T06:00:05.322Z,35.41
2022-09-12T06:01:07.150Z,42.27
2022-09-12T06:02:09.001Z,29.12
2022-09-12T06:03:12.622Z,20.82
2022-09-12T06:04:14.435Z,17.51
2022-09-12T06:05:16.235Z,18.97
2022-09-12T06:06:18.241Z,15.36
2022-09-12T06:07:20.076Z,16.63
2022-09-12T06:08:21.907Z,20.50
2022-09-12T06:09:23.707Z,20.68
2022-09-12T06:10:26.122Z,14.73
2022-09-12T06:11:27.926Z,15.51
2022-09-12T06:12:29.714Z,15.38
2022-09-12T06:13:31.573Z,16.62
2022-09-12T06:14:33.368Z,15.45
2022-09-12T06:15:35.171Z,13.91
2022-09-12T06:16:37.362Z,15.60
2022-09-12T06:17:39.485Z,18.84
2022-09-12T06:18:41.398Z,14.75
2022-09-12T06:19:43.223Z,17.96
2022-09-12T06:20:45.134Z,19.94
2022-09-12T06:21:47.676Z,15.47
2022-09-12T06:22:49.492Z,20.42
2022-09-12T06:23:51.332Z,19.20
2022-09-12T06:24:57.754Z,17.97
2022-09-12T06:25:57.009Z,20.24
2022-09-12T06:26:58.890Z,19.69
2022-09-12T06:28:00.616Z,18.14
2022-09-12T06:29:02.433Z,19.97
2022-09-12T06:30:04.355Z,19.28
2022-09-12T06:31:06.196Z,19.92
2022-09-12T06:32:08.052Z,22.09
2022-09-12T06:33:09.870Z,22.43
2022-09-12T06:34:11.687Z,20.19
2022-09-12T06:35:13.505Z,19.95
2022-09-12T06:36:15.500Z,19.10
2022-09-12T06:37:17.300Z,20.23
2022-09-12T06:38:19.129Z,21.61
2022-09-12T06:39:22.336Z,20.04
2022-09-12T06:40:24.514Z,19.94
2022-09-12T06:41:26.357Z,18.16
2022-09-12T06:42:28.064Z,17.07
2022-09-12T06:43:29.859Z,15.45
2022-09-12T06:44:31.711Z,15.15
2022-09-12T06:45:33.515Z,15.03
2022-09-12T06:46:35.413Z,15.01
2022-09-12T06:47:37.510Z,17.93
2022-09-12T06:48:41.936Z,13.59
2022-09-12T06:49:42.957Z,14.56
2022-09-12T06:50:44.860Z,13.34
2022-09-12T06:51:46.662Z,15.23
2022-09-12T06:52:48.455Z,13.84
2022-09-12T06:53:50.279Z,15.62
2022-09-12T06:54:52.112Z,17.53
2022-09-12T06:55:53.922Z,17.85
2022-09-12T06:56:55.716Z,16.96
2022-09-12T06:57:57.518Z,15.83
2022-09-12T06:58:59.223Z,13.37
2022-09-12T07:00:01.132Z,15.50
2022-09-12T07:01:02.988Z,16.16
2022-09-12T07:02:04.842Z,17.23
2022-09-12T07:03:06.661Z,17.17
2022-09-12T07:04:08.465Z,18.27
2022-09-12T07:05:10.297Z,17.31
2022-09-12T07:06:12.406Z,18.44
2022-09-12T07:07:14.205Z,15.07
2022-09-12T07:08:15.996Z,20.16
2022-09-12T07:09:17.878Z,17.41
2022-09-12T07:10:22.458Z,18.38
2022-09-12T07:11:25.408Z,14.66
2022-09-12T07:12:27.214Z,15.98
2022-09-12T07:13:29.030Z,15.68
2022-09-12T07:14:30.842Z,17.79
2022-09-12T07:15:32.700Z,20.20
2022-09-12T07:16:34.547Z,19.45
2022-09-12T07:17:36.293Z,15.34
2022-09-12T07:18:38.105Z,15.21
2022-09-12T07:19:39.882Z,15.87
2022-09-12T07:20:41.820Z,15.87
2022-09-12T07:21:43.634Z,14.52
2022-09-12T07:22:45.703Z,17.79
2022-09-12T07:23:47.670Z,13.85
2022-09-12T07:24:49.690Z,13.77
2022-09-12T07:25:51.841Z,13.05
2022-09-12T07:26:53.772Z,15.15
2022-09-12T07:27:55.578Z,12.39
2022-09-12T07:29:12.799Z,13.29
2022-09-12T07:30:01.028Z,15.86
2022-09-12T07:31:02.917Z,13.11
2022-09-12T07:32:04.749Z,16.09
2022-09-12T07:33:06.561Z,12.21
2022-09-12T07:34:08.383Z,13.94
2022-09-12T07:35:10.394Z,15.65
2022-09-12T07:36:13.768Z,14.32
2022-09-12T07:37:15.583Z,15.18
2022-09-12T07:38:17.452Z,16.21
2022-09-12T07:39:19.273Z,13.17
2022-09-12T07:40:22.576Z,14.04
2022-09-12T07:41:24.391Z,13.71
2022-09-12T07:42:26.195Z,15.04
2022-09-12T07:43:28.032Z,12.71
2022-09-12T07:44:29.850Z,12.87
2022-09-12T07:45:31.655Z,14.31
2022-09-12T07:46:33.714Z,12.89
2022-09-12T07:47:35.547Z,12.11
2022-09-12T07:48:37.329Z,13.53
2022-09-12T07:49:39.133Z,13.55
2022-09-12T07:50:45.043Z,17.25
2022-09-12T07:51:44.807Z,14.76
2022-09-12T07:52:46.601Z,12.52
2022-09-12T07:53:48.445Z,12.33
2022-09-12T07:54:50.316Z,15.04
2022-09-12T07:55:53.969Z,12.25
2022-09-12T07:56:56.132Z,15.45
2022-09-12T07:57:57.954Z,12.57
2022-09-12T07:58:59.789Z,11.95
2022-09-12T08:00:01.706Z,13.29
2022-09-12T08:01:03.558Z,12.39
2022-09-12T08:02:05.529Z,13.75
2022-09-12T08:03:07.284Z,14.42
2022-09-12T08:04:09.076Z,13.57
2022-09-12T08:05:10.964Z,11.23
2022-09-12T08:06:14.208Z,11.72
2022-09-12T08:07:16.075Z,16.36
2022-09-12T08:08:17.882Z,12.78
2022-09-12T08:09:19.696Z,15.70
2022-09-12T08:10:21.852Z,15.63
2022-09-12T08:11:23.656Z,13.46
2022-09-12T08:12:25.511Z,14.78
2022-09-12T08:13:27.453Z,11.56
2022-09-12T08:14:29.381Z,15.19
2022-09-12T08:15:31.221Z,15.68
2022-09-12T08:16:33.326Z,14.83
2022-09-12T08:17:35.171Z,16.51
2022-09-12T08:18:36.975Z,12.23
2022-09-12T08:19:38.892Z,13.38
2022-09-12T08:20:40.891Z,13.54
2022-09-12T08:21:43.256Z,12.42
2022-09-12T08:22:45.094Z,14.71
2022-09-12T08:23:46.989Z,15.05
2022-09-12T08:24:48.853Z,11.56
2022-09-12T08:25:50.652Z,10.98
2022-09-12T08:26:53.001Z,13.77
2022-09-12T08:27:54.863Z,10.66
2022-09-12T08:28:56.861Z,13.48
2022-09-12T08:29:58.706Z,12.31
2022-09-12T08:31:00.747Z,11.81
2022-09-12T08:32:02.734Z,14.19
2022-09-12T08:33:04.598Z,15.33
2022-09-12T08:34:06.402Z,16.22
2022-09-12T08:35:08.196Z,13.18
2022-09-12T08:36:10.745Z,14.74
2022-09-12T08:37:12.544Z,15.09
2022-09-12T08:38:14.888Z,12.45
2022-09-12T08:39:16.721Z,15.01
2022-09-12T08:40:19.038Z,14.61
2022-09-12T08:41:20.884Z,12.81
2022-09-12T08:42:22.797Z,15.73
2022-09-12T08:43:24.640Z,15.92
2022-09-12T08:44:26.826Z,14.53
2022-09-12T08:45:28.772Z,14.80
2022-09-12T08:46:30.926Z,14.89
2022-09-12T08:47:32.753Z,15.18
2022-09-12T08:48:34.662Z,14.51
2022-09-12T08:49:36.483Z,16.13
2022-09-12T08:50:38.845Z,15.13
2022-09-12T08:51:40.796Z,16.26
2022-09-12T08:52:43.508Z,15.42
2022-09-12T08:53:45.540Z,13.62
2022-09-12T08:54:47.325Z,15.33
2022-09-12T08:55:49.144Z,15.89
2022-09-12T08:56:51.238Z,14.99
2022-09-12T08:57:53.354Z,17.27
2022-09-12T08:58:55.337Z,14.91
2022-09-12T08:59:57.112Z,14.35
2022-09-12T09:00:59.042Z,14.83
2022-09-12T09:02:01.091Z,14.75
2022-09-12T09:03:02.934Z,16.48
2022-09-12T09:04:05.627Z,17.31
2022-09-12T09:05:08.165Z,16.96
2022-09-12T09:06:10.177Z,17.71
2022-09-12T09:07:12.000Z,19.01
2022-09-12T09:08:13.821Z,16.13
2022-09-12T09:09:15.655Z,17.51
2022-09-12T09:10:17.788Z,17.98
2022-09-12T09:11:19.633Z,16.72
2022-09-12T09:12:21.446Z,14.51
2022-09-12T09:13:23.331Z,17.28
2022-09-12T09:14:25.180Z,16.33
2022-09-12T09:15:27.039Z,16.39
2022-09-12T09:16:29.310Z,16.63
2022-09-12T09:17:31.128Z,19.34
2022-09-12T09:18:32.931Z,15.52
2022-09-12T09:19:34.765Z,17.19
2022-09-12T09:20:36.705Z,16.10
2022-09-12T09:21:38.498Z,15.03
2022-09-12T09:22:40.320Z,15.05
2022-09-12T09:23:42.244Z,15.68
2022-09-12T09:24:44.118Z,16.04
2022-09-12T09:25:45.970Z,16.78
2022-09-12T09:26:47.984Z,17.97
2022-09-12T09:27:49.777Z,15.53
2022-09-12T09:28:52.312Z,17.16
2022-09-12T09:29:55.308Z,14.87
2022-09-12T09:30:58.375Z,17.84
2022-09-12T09:32:01.737Z,15.88
2022-09-12T09:33:03.992Z,14.59
2022-09-12T09:34:05.798Z,14.15
2022-09-12T09:35:07.638Z,17.99
2022-09-12T09:36:09.768Z,13.20
2022-09-12T09:37:11.573Z,14.37
2022-09-12T09:38:13.575Z,15.61
2022-09-12T09:39:15.393Z,17.55
2022-09-12T09:40:19.173Z,15.31
2022-09-12T09:41:21.131Z,14.66
2022-09-12T09:42:23.027Z,14.22
2022-09-12T09:43:24.830Z,15.39
2022-09-12T09:44:26.724Z,15.81
2022-09-12T09:45:28.557Z,13.31
2022-09-12T09:46:30.591Z,14.13
2022-09-12T09:47:32.397Z,13.67
2022-09-12T09:48:34.298Z,14.08
2022-09-12T09:49:36.085Z,12.03
2022-09-12T09:50:38.032Z,12.85
2022-09-12T09:51:39.838Z,14.93
2022-09-12T09:52:41.550Z,15.55
2022-09-12T09:53:43.341Z,20.15
2022-09-12T09:54:45.566Z,16.33
2022-09-12T09:55:47.380Z,14.22
2022-09-12T09:56:49.286Z,12.36
2022-09-12T09:57:51.070Z,12.87
2022-09-12T09:58:52.943Z,14.03
2022-09-12T09:59:54.805Z,12.54
2022-09-12T10:00:56.880Z,12.72
2022-09-12T10:01:59.131Z,12.03
2022-09-12T10:03:00.940Z,11.19
2022-09-12T10:04:02.747Z,12.95
2022-09-12T10:05:04.564Z,13.44
2022-09-12T10:06:06.722Z,11.67
2022-09-12T10:07:08.514Z,11.29
2022-09-12T10:08:10.334Z,14.44
2022-09-12T10:09:12.289Z,11.17
2022-09-12T10:10:14.661Z,12.34
2022-09-12T10:11:16.497Z,13.17
2022-09-12T10:12:18.602Z,14.76
2022-09-12T10:13:20.740Z,12.53
2022-09-12T10:14:22.486Z,11.05
2022-09-12T10:15:24.367Z,13.36
2022-09-12T10:16:26.710Z,10.60
2022-09-12T10:17:33.880Z,13.77
2022-09-12T10:18:32.432Z,16.14
2022-09-12T10:19:34.226Z,13.07
2022-09-12T10:20:36.130Z,12.71
2022-09-12T10:21:40.969Z,13.06
2022-09-12T10:22:41.620Z,14.33
2022-09-12T10:23:43.489Z,12.85
2022-09-12T10:24:45.223Z,11.53
2022-09-12T10:25:47.414Z,13.27
2022-09-12T10:26:52.257Z,13.49
2022-09-12T10:27:53.117Z,13.24
2022-09-12T10:28:54.919Z,12.83
2022-09-12T10:29:56.731Z,9.35
2022-09-12T10:30:58.817Z,13.70
2022-09-12T10:32:00.664Z,11.84
2022-09-12T10:33:02.647Z,14.89
2022-09-12T10:34:04.466Z,12.66
2022-09-12T10:35:06.268Z,11.87
2022-09-12T10:36:08.369Z,12.19
2022-09-12T10:37:10.131Z,14.79
2022-09-12T10:38:11.943Z,11.40
2022-09-12T10:39:13.739Z,11.26
2022-09-12T10:40:15.899Z,12.61
2022-09-12T10:41:17.734Z,11.29
2022-09-12T10:42:23.362Z,11.75
2022-09-12T10:43:23.370Z,11.58
2022-09-12T10:44:25.168Z,10.11
2022-09-12T10:45:26.992Z,12.65
2022-09-12T10:46:29.433Z,11.93
2022-09-12T10:47:31.320Z,11.30
2022-09-12T10:48:33.163Z,10.14
2022-09-12T10:49:35.045Z,12.16
2022-09-12T10:50:37.149Z,11.98
2022-09-12T10:51:38.957Z,10.31
2022-09-12T10:52:41.602Z,11.43
2022-09-12T10:53:43.701Z,12.48
2022-09-12T10:54:45.540Z,13.09
2022-09-12T10:55:47.434Z,10.15
2022-09-12T10:56:49.340Z,11.17
2022-09-12T10:57:51.189Z,10.37
2022-09-12T10:58:53.299Z,13.15
2022-09-12T10:59:55.181Z,10.92
2022-09-12T11:00:57.099Z,13.15
2022-09-12T11:01:59.734Z,12.20
2022-09-12T11:03:02.294Z,12.25
2022-09-12T11:04:04.110Z,13.09
2022-09-12T11:05:05.902Z,12.23
2022-09-12T11:06:08.008Z,15.12
2022-09-12T11:07:09.807Z,11.67
2022-09-12T11:08:11.831Z,11.50
2022-09-12T11:09:13.629Z,12.11
2022-09-12T11:10:16.006Z,12.81
2022-09-12T11:11:17.796Z,13.50
2022-09-12T11:12:19.597Z,12.52
2022-09-12T11:13:21.503Z,11.06
2022-09-12T11:14:23.290Z,11.40
2022-09-12T11:15:25.103Z,11.19
2022-09-12T11:16:27.366Z,12.80
2022-09-12T11:17:29.171Z,15.24
2022-09-12T11:18:31.060Z,9.98
2022-09-12T11:19:32.866Z,10.38
2022-09-12T11:20:34.765Z,9.78
2022-09-12T11:21:36.664Z,10.26
2022-09-12T11:22:38.635Z,11.11
2022-09-12T11:23:40.478Z,12.13
2022-09-12T11:24:42.333Z,8.96
2022-09-12T11:25:44.132Z,11.48
2022-09-12T11:26:46.051Z,10.01
2022-09-12T11:27:47.890Z,12.57
2022-09-12T11:28:49.935Z,15.42
2022-09-12T11:29:51.745Z,10.10
2022-09-12T11:30:53.965Z,11.00
2022-09-12T11:31:55.750Z,11.16
2022-09-12T11:32:57.786Z,12.72
2022-09-12T11:33:59.839Z,11.34
2022-09-12T11:35:01.868Z,9.97
2022-09-12T11:36:03.852Z,10.78
2022-09-12T11:37:10.290Z,15.47
2022-09-12T11:38:09.486Z,9.45
2022-09-12T11:39:11.380Z,12.59
2022-09-12T11:40:13.614Z,10.58
2022-09-12T11:41:15.371Z,10.67
2022-09-12T11:42:17.358Z,10.28
2022-09-12T11:43:19.438Z,10.99
2022-09-12T11:44:21.348Z,9.40
2022-09-12T11:45:23.229Z,10.87
2022-09-12T11:46:26.088Z,10.53
2022-09-12T11:47:28.187Z,10.95
2022-09-12T11:48:30.029Z,11.09
2022-09-12T11:49:35.422Z,11.39
2022-09-12T11:50:35.504Z,11.49
2022-09-12T11:51:37.317Z,15.06
2022-09-12T11:52:39.113Z,11.56
2022-09-12T11:53:40.930Z,10.85
2022-09-12T11:54:42.766Z,11.48
2022-09-12T11:55:44.580Z,10.59
2022-09-12T11:56:46.482Z,11.01
2022-09-12T11:57:48.291Z,11.71
2022-09-12T11:58:50.105Z,11.49
2022-09-12T11:59:51.963Z,11.63
2022-09-12T12:00:53.868Z,11.11
2022-09-12T12:01:55.678Z,11.87
2022-09-12T12:02:57.487Z,9.49
2022-09-12T12:03:59.393Z,12.53
2022-09-12T12:05:01.190Z,11.31
2022-09-12T12:06:03.098Z,10.94
2022-09-12T12:07:04.907Z,14.50
2022-09-12T12:08:06.743Z,11.68
2022-09-12T12:09:08.562Z,9.21
2022-09-12T12:10:10.917Z,11.03
2022-09-12T12:11:12.744Z,9.25
2022-09-12T12:12:14.542Z,10.09
2022-09-12T12:13:16.364Z,11.51
2022-09-12T12:14:18.172Z,9.71
2022-09-12T12:15:20.127Z,8.38
2022-09-12T12:16:22.492Z,10.87
2022-09-12T12:17:24.267Z,9.91
2022-09-12T12:18:26.081Z,10.31
2022-09-12T12:19:28.010Z,8.93
2022-09-12T12:20:30.001Z,11.69
2022-09-12T12:21:31.823Z,13.35
2022-09-12T12:22:33.824Z,12.56
2022-09-12T12:23:35.690Z,15.21
2022-09-12T12:24:37.554Z,14.81
2022-09-12T12:25:39.452Z,13.49
2022-09-12T12:26:41.371Z,16.94
2022-09-12T12:27:43.191Z,14.01
2022-09-12T12:28:45.076Z,15.62
2022-09-12T12:29:46.921Z,16.99
2022-09-12T12:30:48.912Z,12.81
2022-09-12T12:31:51.020Z,10.87
2022-09-12T12:32:53.431Z,11.89
2022-09-12T12:33:55.629Z,10.79
2022-09-12T12:34:57.538Z,11.08
2022-09-12T12:35:59.596Z,12.27
2022-09-12T12:37:07.196Z,11.21
2022-09-12T12:38:05.922Z,9.71
2022-09-12T12:39:08.796Z,10.22
2022-09-12T12:40:11.202Z,11.41
2022-09-12T12:41:13.105Z,10.91
2022-09-12T12:42:19.071Z,10.81
2022-09-12T12:43:19.941Z,12.44
2022-09-12T12:44:25.508Z,12.39
2022-09-12T12:45:27.903Z,11.17
2022-09-12T12:46:30.730Z,9.34
2022-09-12T12:47:33.120Z,10.36
2022-09-12T12:48:35.802Z,9.88
2022-09-12T12:49:41.708Z,10.50
2022-09-12T12:50:44.290Z,9.78
2022-09-12T12:51:47.063Z,11.10
2022-09-12T12:52:49.734Z,12.73
2022-09-12T12:53:54.817Z,10.19
2022-09-12T12:54:58.535Z,10.82
2022-09-12T12:56:00.963Z,9.44
2022-09-12T12:57:03.517Z,11.11
2022-09-12T12:58:05.615Z,12.69
2022-09-12T12:59:07.975Z,11.46
2022-09-12T13:00:09.991Z,12.56
2022-09-12T13:01:11.901Z,11.23
2022-09-12T13:02:14.010Z,11.55
2022-09-12T13:03:16.287Z,10.52
2022-09-12T13:04:18.135Z,10.10
2022-09-12T13:05:19.958Z,10.63
2022-09-12T13:06:23.758Z,12.08
2022-09-12T13:07:25.609Z,12.38
2022-09-12T13:08:31.434Z,12.33
2022-09-12T13:09:33.890Z,12.19
2022-09-12T13:10:36.418Z,9.25
2022-09-12T13:11:38.269Z,13.05
2022-09-12T13:12:40.099Z,15.54
2022-09-12T13:13:42.772Z,16.17
2022-09-12T13:14:45.181Z,15.02
2022-09-12T13:15:47.046Z,13.61
2022-09-12T13:16:49.001Z,11.48
2022-09-12T13:17:50.902Z,11.57
2022-09-12T13:18:52.710Z,12.33
2022-09-12T13:20:16.840Z,13.85